Terminal Aerodrome Forecast
Issued by NWS Buffalo, NY

Home | Current Version | Previous Version | Text Only | Print | Product List | Glossary On
Versions: 1 2 3 4 5 6 7 8 9 10 11 12 13 14 15 16 17 18 19 20 21 22 23 24 25 26 27
000
FTUS41 KBUF 260500
TAFART
TAF
KART 260524Z 2606/2706 VRB03KT P6SM OVC050
     FM261200 35004KT P6SM BKN080
     FM261400 33006KT P6SM BKN060
     FM262000 27009KT P6SM BKN035
     FM270000 25004KT P6SM BKN040=

USA.gov is the U.S. government's official web portal to all federal, state and local government web resources and services.